sensor_id;sensor_type;location;lat;lon;timestamp;P1;durP1;ratioP1;P2;durP2;ratioP2
10701;SDS011;5402;50.004;8.246;2022-10-18T00:01:07;8.53;;;6.70;;
10701;SDS011;5402;50.004;8.246;2022-10-18T00:03:35;8.80;;;6.30;;
10701;SDS011;5402;50.004;8.246;2022-10-18T00:06:02;12.97;;;6.60;;
10701;SDS011;5402;50.004;8.246;2022-10-18T00:08:31;13.37;;;7.13;;
10701;SDS011;5402;50.004;8.246;2022-10-18T00:10:57;9.30;;;6.97;;
10701;SDS011;5402;50.004;8.246;2022-10-18T00:13:24;9.57;;;6.67;;
10701;SDS011;5402;50.004;8.246;2022-10-18T00:15:52;12.07;;;6.97;;
10701;SDS011;5402;50.004;8.246;2022-10-18T00:18:21;9.17;;;6.47;;
10701;SDS011;5402;50.004;8.246;2022-10-18T00:20:57;9.10;;;6.87;;
10701;SDS011;5402;50.004;8.246;2022-10-18T00:23:25;14.13;;;6.53;;
10701;SDS011;5402;50.004;8.246;2022-10-18T00:26:04;13.20;;;7.30;;
10701;SDS011;5402;50.004;8.246;2022-10-18T00:28:32;11.07;;;6.77;;
10701;SDS011;5402;50.004;8.246;2022-10-18T00:31:10;9.27;;;6.80;;
10701;SDS011;5402;50.004;8.246;2022-10-18T00:33:38;14.83;;;9.13;;
10701;SDS011;5402;50.004;8.246;2022-10-18T00:36:06;15.83;;;7.40;;
10701;SDS011;5402;50.004;8.246;2022-10-18T00:38:33;0.87;;;0.87;;
10701;SDS011;5402;50.004;8.246;2022-10-18T00:41:00;0.00;;;0.00;;
10701;SDS011;5402;50.004;8.246;2022-10-18T00:43:28;0.00;;;0.00;;
10701;SDS011;5402;50.004;8.246;2022-10-18T00:45:54;0.00;;;0.00;;
10701;SDS011;5402;50.004;8.246;2022-10-18T00:48:21;0.00;;;0.00;;
10701;SDS011;5402;50.004;8.246;2022-10-18T00:50:49;0.00;;;0.00;;
10701;SDS011;5402;50.004;8.246;2022-10-18T00:53:18;0.00;;;0.00;;
10701;SDS011;5402;50.004;8.246;2022-10-18T00:55:47;0.00;;;0.00;;
10701;SDS011;5402;50.004;8.246;2022-10-18T00:58:15;0.73;;;0.57;;
10701;SDS011;5402;50.004;8.246;2022-10-18T01:00:45;0.00;;;0.00;;
10701;SDS011;5402;50.004;8.246;2022-10-18T01:03:12;0.00;;;0.00;;
10701;SDS011;5402;50.004;8.246;2022-10-18T01:05:41;0.00;;;0.00;;
10701;SDS011;5402;50.004;8.246;2022-10-18T01:08:15;0.00;;;0.00;;
10701;SDS011;5402;50.004;8.246;2022-10-18T01:11:01;0.00;;;0.00;;
10701;SDS011;5402;50.004;8.246;2022-10-18T01:13:38;0.00;;;0.00;;
10701;SDS011;5402;50.004;8.246;2022-10-18T01:16:20;0.00;;;0.00;;
10701;SDS011;5402;50.004;8.246;2022-10-18T01:18:54;0.00;;;0.00;;
10701;SDS011;5402;50.004;8.246;2022-10-18T01:21:35;0.00;;;0.00;;
10701;SDS011;5402;50.004;8.246;2022-10-18T01:33:02;0.00;;;0.00;;
10701;SDS011;5402;50.004;8.246;2022-10-18T01:35:32;0.00;;;0.00;;
10701;SDS011;5402;50.004;8.246;2022-10-18T01:38:03;0.00;;;0.00;;
10701;SDS011;5402;50.004;8.246;2022-10-18T01:40:35;0.00;;;0.00;;
10701;SDS011;5402;50.004;8.246;2022-10-18T01:43:04;0.00;;;0.00;;
10701;SDS011;5402;50.004;8.246;2022-10-18T01:45:35;0.00;;;0.00;;
10701;SDS011;5402;50.004;8.246;2022-10-18T01:48:02;0.00;;;0.00;;
10701;SDS011;5402;50.004;8.246;2022-10-18T01:50:31;0.00;;;0.00;;
10701;SDS011;5402;50.004;8.246;2022-10-18T01:52:58;0.10;;;0.10;;
10701;SDS011;5402;50.004;8.246;2022-10-18T01:55:26;0.37;;;0.37;;
10701;SDS011;5402;50.004;8.246;2022-10-18T01:58:01;0.00;;;0.00;;
10701;SDS011;5402;50.004;8.246;2022-10-18T02:00:32;0.00;;;0.00;;
10701;SDS011;5402;50.004;8.246;2022-10-18T02:03:07;0.00;;;0.00;;
10701;SDS011;5402;50.004;8.246;2022-10-18T02:05:42;0.00;;;0.00;;
10701;SDS011;5402;50.004;8.246;2022-10-18T02:08:15;0.00;;;0.00;;
10701;SDS011;5402;50.004;8.246;2022-10-18T02:10:51;0.00;;;0.00;;
10701;SDS011;5402;50.004;8.246;2022-10-18T02:13:22;0.00;;;0.00;;
10701;SDS011;5402;50.004;8.246;2022-10-18T02:15:55;0.00;;;0.00;;
10701;SDS011;5402;50.004;8.246;2022-10-18T02:18:27;0.00;;;0.00;;
10701;SDS011;5402;50.004;8.246;2022-10-18T02:20:58;0.00;;;0.00;;
10701;SDS011;5402;50.004;8.246;2022-10-18T02:23:28;0.00;;;0.00;;
10701;SDS011;5402;50.004;8.246;2022-10-18T02:25:56;0.07;;;0.07;;
10701;SDS011;5402;50.004;8.246;2022-10-18T02:28:23;0.30;;;0.30;;
10701;SDS011;5402;50.004;8.246;2022-10-18T02:30:52;0.00;;;0.00;;
10701;SDS011;5402;50.004;8.246;2022-10-18T02:33:36;0.00;;;0.00;;
10701;SDS011;5402;50.004;8.246;2022-10-18T02:36:11;0.00;;;0.00;;
10701;SDS011;5402;50.004;8.246;2022-10-18T02:38:43;0.00;;;0.00;;
10701;SDS011;5402;50.004;8.246;2022-10-18T02:41:11;0.10;;;0.10;;
10701;SDS011;5402;50.004;8.246;2022-10-18T02:43:46;0.00;;;0.00;;
10701;SDS011;5402;50.004;8.246;2022-10-18T02:46:14;0.00;;;0.00;;
10701;SDS011;5402;50.004;8.246;2022-10-18T02:48:41;0.00;;;0.00;;
10701;SDS011;5402;50.004;8.246;2022-10-18T02:51:08;0.00;;;0.00;;
10701;SDS011;5402;50.004;8.246;2022-10-18T02:53:34;0.00;;;0.00;;
10701;SDS011;5402;50.004;8.246;2022-10-18T02:56:01;0.00;;;0.00;;
10701;SDS011;5402;50.004;8.246;2022-10-18T02:58:28;0.00;;;0.00;;
10701;SDS011;5402;50.004;8.246;2022-10-18T03:00:55;0.00;;;0.00;;
10701;SDS011;5402;50.004;8.246;2022-10-18T03:03:23;0.00;;;0.00;;
10701;SDS011;5402;50.004;8.246;2022-10-18T03:05:49;0.00;;;0.00;;
10701;SDS011;5402;50.004;8.246;2022-10-18T03:08:17;0.00;;;0.00;;
10701;SDS011;5402;50.004;8.246;2022-10-18T03:10:44;0.00;;;0.00;;
10701;SDS011;5402;50.004;8.246;2022-10-18T03:13:11;0.00;;;0.00;;
10701;SDS011;5402;50.004;8.246;2022-10-18T03:15:38;0.00;;;0.00;;
10701;SDS011;5402;50.004;8.246;2022-10-18T03:18:06;0.00;;;0.00;;
10701;SDS011;5402;50.004;8.246;2022-10-18T03:20:34;0.00;;;0.00;;
10701;SDS011;5402;50.004;8.246;2022-10-18T03:23:01;0.00;;;0.00;;
10701;SDS011;5402;50.004;8.246;2022-10-18T03:25:27;0.00;;;0.00;;
10701;SDS011;5402;50.004;8.246;2022-10-18T03:27:54;0.00;;;0.00;;
10701;SDS011;5402;50.004;8.246;2022-10-18T03:30:21;0.00;;;0.00;;
10701;SDS011;5402;50.004;8.246;2022-10-18T03:32:48;0.00;;;0.00;;
10701;SDS011;5402;50.004;8.246;2022-10-18T03:35:14;0.00;;;0.00;;
10701;SDS011;5402;50.004;8.246;2022-10-18T03:37:43;0.00;;;0.00;;
10701;SDS011;5402;50.004;8.246;2022-10-18T03:40:10;0.00;;;0.00;;
10701;SDS011;5402;50.004;8.246;2022-10-18T03:42:36;0.00;;;0.00;;
10701;SDS011;5402;50.004;8.246;2022-10-18T03:45:04;0.00;;;0.00;;
10701;SDS011;5402;50.004;8.246;2022-10-18T03:47:31;0.00;;;0.00;;
10701;SDS011;5402;50.004;8.246;2022-10-18T03:49:58;0.00;;;0.00;;
10701;SDS011;5402;50.004;8.246;2022-10-18T03:52:25;0.00;;;0.00;;
10701;SDS011;5402;50.004;8.246;2022-10-18T03:54:53;0.00;;;0.00;;
10701;SDS011;5402;50.004;8.246;2022-10-18T03:57:20;0.00;;;0.00;;
10701;SDS011;5402;50.004;8.246;2022-10-18T03:59:46;0.00;;;0.00;;
10701;SDS011;5402;50.004;8.246;2022-10-18T04:02:13;0.00;;;0.00;;
10701;SDS011;5402;50.004;8.246;2022-10-18T04:04:41;0.40;;;0.40;;
10701;SDS011;5402;50.004;8.246;2022-10-18T04:07:08;0.00;;;0.00;;
10701;SDS011;5402;50.004;8.246;2022-10-18T04:09:35;0.00;;;0.00;;
10701;SDS011;5402;50.004;8.246;2022-10-18T04:12:03;0.00;;;0.00;;
10701;SDS011;5402;50.004;8.246;2022-10-18T04:14:30;0.00;;;0.00;;
10701;SDS011;5402;50.004;8.246;2022-10-18T04:16:57;0.10;;;0.10;;
10701;SDS011;5402;50.004;8.246;2022-10-18T04:19:23;0.00;;;0.00;;
10701;SDS011;5402;50.004;8.246;2022-10-18T04:21:51;0.00;;;0.00;;
10701;SDS011;5402;50.004;8.246;2022-10-18T04:24:18;0.00;;;0.00;;
10701;SDS011;5402;50.004;8.246;2022-10-18T04:26:45;0.00;;;0.00;;
10701;SDS011;5402;50.004;8.246;2022-10-18T04:29:13;0.00;;;0.00;;
10701;SDS011;5402;50.004;8.246;2022-10-18T04:31:40;0.00;;;0.00;;
10701;SDS011;5402;50.004;8.246;2022-10-18T04:34:07;0.00;;;0.00;;
10701;SDS011;5402;50.004;8.246;2022-10-18T04:36:34;0.00;;;0.00;;
10701;SDS011;5402;50.004;8.246;2022-10-18T04:39:01;0.00;;;0.00;;
10701;SDS011;5402;50.004;8.246;2022-10-18T04:41:28;0.00;;;0.00;;
10701;SDS011;5402;50.004;8.246;2022-10-18T04:43:55;0.00;;;0.00;;
10701;SDS011;5402;50.004;8.246;2022-10-18T04:46:23;0.00;;;0.00;;
10701;SDS011;5402;50.004;8.246;2022-10-18T04:48:50;0.00;;;0.00;;
10701;SDS011;5402;50.004;8.246;2022-10-18T04:51:17;0.00;;;0.00;;
10701;SDS011;5402;50.004;8.246;2022-10-18T04:53:43;0.00;;;0.00;;
10701;SDS011;5402;50.004;8.246;2022-10-18T04:56:10;0.00;;;0.00;;
10701;SDS011;5402;50.004;8.246;2022-10-18T04:58:37;0.00;;;0.00;;
10701;SDS011;5402;50.004;8.246;2022-10-18T05:01:04;0.00;;;0.00;;
10701;SDS011;5402;50.004;8.246;2022-10-18T05:03:33;0.00;;;0.00;;
10701;SDS011;5402;50.004;8.246;2022-10-18T05:06:00;0.00;;;0.00;;
10701;SDS011;5402;50.004;8.246;2022-10-18T05:08:27;0.53;;;0.53;;
10701;SDS011;5402;50.004;8.246;2022-10-18T05:10:54;0.00;;;0.00;;
10701;SDS011;5402;50.004;8.246;2022-10-18T05:13:21;0.00;;;0.00;;
10701;SDS011;5402;50.004;8.246;2022-10-18T05:15:47;0.00;;;0.00;;
10701;SDS011;5402;50.004;8.246;2022-10-18T05:18:14;0.00;;;0.00;;
10701;SDS011;5402;50.004;8.246;2022-10-18T05:20:42;0.00;;;0.00;;
10701;SDS011;5402;50.004;8.246;2022-10-18T05:23:09;0.00;;;0.00;;
10701;SDS011;5402;50.004;8.246;2022-10-18T05:25:36;0.00;;;0.00;;
10701;SDS011;5402;50.004;8.246;2022-10-18T05:28:04;0.00;;;0.00;;
10701;SDS011;5402;50.004;8.246;2022-10-18T05:30:31;0.00;;;0.00;;
10701;SDS011;5402;50.004;8.246;2022-10-18T05:32:58;0.00;;;0.00;;
10701;SDS011;5402;50.004;8.246;2022-10-18T05:35:24;0.00;;;0.00;;
10701;SDS011;5402;50.004;8.246;2022-10-18T05:37:54;0.00;;;0.00;;
10701;SDS011;5402;50.004;8.246;2022-10-18T05:40:20;0.00;;;0.00;;
10701;SDS011;5402;50.004;8.246;2022-10-18T05:42:50;0.00;;;0.00;;
10701;SDS011;5402;50.004;8.246;2022-10-18T05:45:17;0.00;;;0.00;;
10701;SDS011;5402;50.004;8.246;2022-10-18T05:47:43;0.00;;;0.00;;
10701;SDS011;5402;50.004;8.246;2022-10-18T05:50:10;0.00;;;0.00;;
10701;SDS011;5402;50.004;8.246;2022-10-18T05:52:37;0.00;;;0.00;;
10701;SDS011;5402;50.004;8.246;2022-10-18T05:55:06;0.00;;;0.00;;
10701;SDS011;5402;50.004;8.246;2022-10-18T05:57:33;0.00;;;0.00;;
10701;SDS011;5402;50.004;8.246;2022-10-18T05:59:59;0.00;;;0.00;;
10701;SDS011;5402;50.004;8.246;2022-10-18T06:02:26;0.00;;;0.00;;
10701;SDS011;5402;50.004;8.246;2022-10-18T06:04:53;0.00;;;0.00;;
10701;SDS011;5402;50.004;8.246;2022-10-18T06:07:20;0.00;;;0.00;;
10701;SDS011;5402;50.004;8.246;2022-10-18T06:09:46;0.00;;;0.00;;
10701;SDS011;5402;50.004;8.246;2022-10-18T06:12:14;0.00;;;0.00;;
10701;SDS011;5402;50.004;8.246;2022-10-18T06:14:42;0.00;;;0.00;;
10701;SDS011;5402;50.004;8.246;2022-10-18T06:17:09;0.00;;;0.00;;
10701;SDS011;5402;50.004;8.246;2022-10-18T06:19:36;0.00;;;0.00;;
10701;SDS011;5402;50.004;8.246;2022-10-18T06:22:02;0.00;;;0.00;;
10701;SDS011;5402;50.004;8.246;2022-10-18T06:24:29;0.00;;;0.00;;
10701;SDS011;5402;50.004;8.246;2022-10-18T06:26:56;0.00;;;0.00;;
10701;SDS011;5402;50.004;8.246;2022-10-18T06:29:24;0.03;;;0.03;;
10701;SDS011;5402;50.004;8.246;2022-10-18T06:31:51;0.00;;;0.00;;
10701;SDS011;5402;50.004;8.246;2022-10-18T06:34:18;0.00;;;0.00;;
10701;SDS011;5402;50.004;8.246;2022-10-18T06:36:45;0.00;;;0.00;;
10701;SDS011;5402;50.004;8.246;2022-10-18T06:39:11;0.00;;;0.00;;
10701;SDS011;5402;50.004;8.246;2022-10-18T06:41:38;0.00;;;0.00;;
10701;SDS011;5402;50.004;8.246;2022-10-18T06:44:05;0.00;;;0.00;;
10701;SDS011;5402;50.004;8.246;2022-10-18T06:46:39;0.00;;;0.00;;
10701;SDS011;5402;50.004;8.246;2022-10-18T06:49:06;0.00;;;0.00;;
10701;SDS011;5402;50.004;8.246;2022-10-18T06:51:32;0.00;;;0.00;;
10701;SDS011;5402;50.004;8.246;2022-10-18T06:53:59;0.00;;;0.00;;
10701;SDS011;5402;50.004;8.246;2022-10-18T06:56:26;0.00;;;0.00;;
10701;SDS011;5402;50.004;8.246;2022-10-18T06:58:53;0.00;;;0.00;;
10701;SDS011;5402;50.004;8.246;2022-10-18T07:01:20;0.20;;;0.20;;
10701;SDS011;5402;50.004;8.246;2022-10-18T07:03:50;0.00;;;0.00;;
10701;SDS011;5402;50.004;8.246;2022-10-18T07:06:18;0.00;;;0.00;;
10701;SDS011;5402;50.004;8.246;2022-10-18T07:08:46;0.00;;;0.00;;
10701;SDS011;5402;50.004;8.246;2022-10-18T07:11:15;0.00;;;0.00;;
10701;SDS011;5402;50.004;8.246;2022-10-18T07:13:43;0.00;;;0.00;;
10701;SDS011;5402;50.004;8.246;2022-10-18T07:16:10;0.00;;;0.00;;
10701;SDS011;5402;50.004;8.246;2022-10-18T07:18:39;0.00;;;0.00;;
10701;SDS011;5402;50.004;8.246;2022-10-18T07:21:09;0.00;;;0.00;;
10701;SDS011;5402;50.004;8.246;2022-10-18T07:23:37;0.00;;;0.00;;
10701;SDS011;5402;50.004;8.246;2022-10-18T07:26:10;0.00;;;0.00;;
10701;SDS011;5402;50.004;8.246;2022-10-18T07:28:38;0.00;;;0.00;;
10701;SDS011;5402;50.004;8.246;2022-10-18T07:31:05;0.00;;;0.00;;
10701;SDS011;5402;50.004;8.246;2022-10-18T07:33:32;0.00;;;0.00;;
10701;SDS011;5402;50.004;8.246;2022-10-18T07:35:59;0.00;;;0.00;;
10701;SDS011;5402;50.004;8.246;2022-10-18T07:38:28;0.00;;;0.00;;
10701;SDS011;5402;50.004;8.246;2022-10-18T07:40:55;0.00;;;0.00;;
10701;SDS011;5402;50.004;8.246;2022-10-18T07:43:23;0.00;;;0.00;;
10701;SDS011;5402;50.004;8.246;2022-10-18T07:45:50;0.00;;;0.00;;
10701;SDS011;5402;50.004;8.246;2022-10-18T07:48:17;0.00;;;0.00;;
10701;SDS011;5402;50.004;8.246;2022-10-18T07:50:44;0.00;;;0.00;;
10701;SDS011;5402;50.004;8.246;2022-10-18T07:53:11;0.00;;;0.00;;
10701;SDS011;5402;50.004;8.246;2022-10-18T07:55:39;0.00;;;0.00;;
10701;SDS011;5402;50.004;8.246;2022-10-18T07:58:06;0.00;;;0.00;;
10701;SDS011;5402;50.004;8.246;2022-10-18T08:00:33;0.00;;;0.00;;
10701;SDS011;5402;50.004;8.246;2022-10-18T08:02:59;0.00;;;0.00;;
10701;SDS011;5402;50.004;8.246;2022-10-18T08:05:26;0.00;;;0.00;;
10701;SDS011;5402;50.004;8.246;2022-10-18T08:07:54;0.00;;;0.00;;
10701;SDS011;5402;50.004;8.246;2022-10-18T08:10:21;0.00;;;0.00;;
10701;SDS011;5402;50.004;8.246;2022-10-18T08:12:52;0.00;;;0.00;;
10701;SDS011;5402;50.004;8.246;2022-10-18T08:15:20;1.33;;;0.97;;
10701;SDS011;5402;50.004;8.246;2022-10-18T08:17:49;0.00;;;0.00;;
10701;SDS011;5402;50.004;8.246;2022-10-18T08:20:15;0.00;;;0.00;;
10701;SDS011;5402;50.004;8.246;2022-10-18T08:22:42;0.00;;;0.00;;
10701;SDS011;5402;50.004;8.246;2022-10-18T08:25:09;0.00;;;0.00;;
10701;SDS011;5402;50.004;8.246;2022-10-18T08:27:36;0.00;;;0.00;;
10701;SDS011;5402;50.004;8.246;2022-10-18T08:30:04;0.00;;;0.00;;
10701;SDS011;5402;50.004;8.246;2022-10-18T08:32:33;0.00;;;0.00;;
10701;SDS011;5402;50.004;8.246;2022-10-18T08:35:00;0.00;;;0.00;;
10701;SDS011;5402;50.004;8.246;2022-10-18T08:37:26;0.00;;;0.00;;
10701;SDS011;5402;50.004;8.246;2022-10-18T08:39:53;0.00;;;0.00;;
10701;SDS011;5402;50.004;8.246;2022-10-18T08:42:22;0.00;;;0.00;;
10701;SDS011;5402;50.004;8.246;2022-10-18T08:45:02;0.00;;;0.00;;
10701;SDS011;5402;50.004;8.246;2022-10-18T08:47:33;0.00;;;0.00;;
10701;SDS011;5402;50.004;8.246;2022-10-18T08:50:02;0.00;;;0.00;;
10701;SDS011;5402;50.004;8.246;2022-10-18T08:52:32;0.00;;;0.00;;
10701;SDS011;5402;50.004;8.246;2022-10-18T08:55:04;0.00;;;0.00;;
10701;SDS011;5402;50.004;8.246;2022-10-18T08:57:37;0.00;;;0.00;;
10701;SDS011;5402;50.004;8.246;2022-10-18T09:00:06;0.00;;;0.00;;
10701;SDS011;5402;50.004;8.246;2022-10-18T09:02:42;0.00;;;0.00;;
10701;SDS011;5402;50.004;8.246;2022-10-18T09:05:27;0.00;;;0.00;;
10701;SDS011;5402;50.004;8.246;2022-10-18T09:08:03;0.00;;;0.00;;
10701;SDS011;5402;50.004;8.246;2022-10-18T09:10:58;0.00;;;0.00;;
10701;SDS011;5402;50.004;8.246;2022-10-18T09:13:42;0.00;;;0.00;;
10701;SDS011;5402;50.004;8.246;2022-10-18T09:16:32;0.00;;;0.00;;
10701;SDS011;5402;50.004;8.246;2022-10-18T09:19:11;0.00;;;0.00;;
10701;SDS011;5402;50.004;8.246;2022-10-18T09:21:50;0.00;;;0.00;;
10701;SDS011;5402;50.004;8.246;2022-10-18T09:24:21;0.00;;;0.00;;
10701;SDS011;5402;50.004;8.246;2022-10-18T09:26:54;0.00;;;0.00;;
10701;SDS011;5402;50.004;8.246;2022-10-18T09:29:36;0.00;;;0.00;;
10701;SDS011;5402;50.004;8.246;2022-10-18T09:32:15;0.00;;;0.00;;
10701;SDS011;5402;50.004;8.246;2022-10-18T09:34:50;0.00;;;0.00;;
10701;SDS011;5402;50.004;8.246;2022-10-18T09:37:21;0.00;;;0.00;;
10701;SDS011;5402;50.004;8.246;2022-10-18T09:39:50;0.00;;;0.00;;
10701;SDS011;5402;50.004;8.246;2022-10-18T09:42:20;0.00;;;0.00;;
10701;SDS011;5402;50.004;8.246;2022-10-18T09:44:53;0.00;;;0.00;;
10701;SDS011;5402;50.004;8.246;2022-10-18T09:47:25;0.00;;;0.00;;
10701;SDS011;5402;50.004;8.246;2022-10-18T09:49:58;0.00;;;0.00;;
10701;SDS011;5402;50.004;8.246;2022-10-18T09:52:30;0.00;;;0.00;;
10701;SDS011;5402;50.004;8.246;2022-10-18T09:55:02;0.00;;;0.00;;
10701;SDS011;5402;50.004;8.246;2022-10-18T09:57:34;0.00;;;0.00;;
10701;SDS011;5402;50.004;8.246;2022-10-18T10:00:05;0.00;;;0.00;;
10701;SDS011;5402;50.004;8.246;2022-10-18T10:02:42;0.00;;;0.00;;
10701;SDS011;5402;50.004;8.246;2022-10-18T10:05:10;0.00;;;0.00;;
10701;SDS011;5402;50.004;8.246;2022-10-18T10:07:40;0.00;;;0.00;;
10701;SDS011;5402;50.004;8.246;2022-10-18T10:10:11;0.00;;;0.00;;
10701;SDS011;5402;50.004;8.246;2022-10-18T10:12:41;0.00;;;0.00;;
10701;SDS011;5402;50.004;8.246;2022-10-18T10:15:15;0.00;;;0.00;;
10701;SDS011;5402;50.004;8.246;2022-10-18T10:17:45;0.00;;;0.00;;
10701;SDS011;5402;50.004;8.246;2022-10-18T10:20:21;0.00;;;0.00;;
10701;SDS011;5402;50.004;8.246;2022-10-18T10:22:49;0.00;;;0.00;;
10701;SDS011;5402;50.004;8.246;2022-10-18T10:25:20;0.00;;;0.00;;
10701;SDS011;5402;50.004;8.246;2022-10-18T10:27:51;0.00;;;0.00;;
10701;SDS011;5402;50.004;8.246;2022-10-18T10:30:22;0.00;;;0.00;;
10701;SDS011;5402;50.004;8.246;2022-10-18T10:32:53;0.00;;;0.00;;
10701;SDS011;5402;50.004;8.246;2022-10-18T10:35:22;0.00;;;0.00;;
10701;SDS011;5402;50.004;8.246;2022-10-18T10:37:54;0.00;;;0.00;;
10701;SDS011;5402;50.004;8.246;2022-10-18T10:40:21;0.00;;;0.00;;
10701;SDS011;5402;50.004;8.246;2022-10-18T10:43:00;0.00;;;0.00;;
10701;SDS011;5402;50.004;8.246;2022-10-18T10:45:31;0.00;;;0.00;;
10701;SDS011;5402;50.004;8.246;2022-10-18T10:48:06;0.00;;;0.00;;
10701;SDS011;5402;50.004;8.246;2022-10-18T10:50:49;0.30;;;0.30;;
10701;SDS011;5402;50.004;8.246;2022-10-18T10:53:25;0.50;;;0.50;;
10701;SDS011;5402;50.004;8.246;2022-10-18T10:55:57;0.50;;;0.50;;
10701;SDS011;5402;50.004;8.246;2022-10-18T10:58:25;0.67;;;0.60;;
10701;SDS011;5402;50.004;8.246;2022-10-18T11:00:54;0.53;;;0.53;;
10701;SDS011;5402;50.004;8.246;2022-10-18T11:03:23;0.67;;;0.60;;
10701;SDS011;5402;50.004;8.246;2022-10-18T11:05:50;0.80;;;0.80;;
10701;SDS011;5402;50.004;8.246;2022-10-18T11:08:20;0.77;;;0.47;;
10701;SDS011;5402;50.004;8.246;2022-10-18T11:11:00;0.70;;;0.70;;
10701;SDS011;5402;50.004;8.246;2022-10-18T11:13:42;0.83;;;0.77;;
10701;SDS011;5402;50.004;8.246;2022-10-18T11:16:13;1.07;;;0.80;;
10701;SDS011;5402;50.004;8.246;2022-10-18T11:18:50;3.50;;;0.67;;
10701;SDS011;5402;50.004;8.246;2022-10-18T11:21:19;0.60;;;0.60;;
10701;SDS011;5402;50.004;8.246;2022-10-18T11:23:48;0.77;;;0.70;;
10701;SDS011;5402;50.004;8.246;2022-10-18T11:26:19;0.90;;;0.90;;
10701;SDS011;5402;50.004;8.246;2022-10-18T11:29:05;1.30;;;0.80;;
10701;SDS011;5402;50.004;8.246;2022-10-18T11:31:50;2.23;;;0.60;;
10701;SDS011;5402;50.004;8.246;2022-10-18T11:34:33;0.83;;;0.83;;
10701;SDS011;5402;50.004;8.246;2022-10-18T11:37:19;2.97;;;0.90;;
10701;SDS011;5402;50.004;8.246;2022-10-18T11:39:59;0.60;;;0.60;;
10701;SDS011;5402;50.004;8.246;2022-10-18T11:42:44;0.60;;;0.60;;
10701;SDS011;5402;50.004;8.246;2022-10-18T11:45:23;0.50;;;0.50;;
10701;SDS011;5402;50.004;8.246;2022-10-18T11:47:58;0.80;;;0.80;;
10701;SDS011;5402;50.004;8.246;2022-10-18T11:50:33;0.80;;;0.60;;
10701;SDS011;5402;50.004;8.246;2022-10-18T11:53:08;1.57;;;0.70;;
10701;SDS011;5402;50.004;8.246;2022-10-18T11:55:45;4.10;;;0.70;;
10701;SDS011;5402;50.004;8.246;2022-10-18T11:58:23;0.77;;;0.50;;
10701;SDS011;5402;50.004;8.246;2022-10-18T12:00:57;1.03;;;0.70;;
10701;SDS011;5402;50.004;8.246;2022-10-18T12:03:32;0.60;;;0.60;;
10701;SDS011;5402;50.004;8.246;2022-10-18T12:06:17;0.60;;;0.60;;
10701;SDS011;5402;50.004;8.246;2022-10-18T12:08:47;0.87;;;0.70;;
10701;SDS011;5402;50.004;8.246;2022-10-18T12:11:17;0.70;;;0.57;;
10701;SDS011;5402;50.004;8.246;2022-10-18T12:13:47;0.50;;;0.50;;
10701;SDS011;5402;50.004;8.246;2022-10-18T12:16:18;0.67;;;0.60;;
10701;SDS011;5402;50.004;8.246;2022-10-18T12:18:51;0.87;;;0.67;;
10701;SDS011;5402;50.004;8.246;2022-10-18T12:21:22;0.83;;;0.83;;
10701;SDS011;5402;50.004;8.246;2022-10-18T12:23:53;0.70;;;0.70;;
10701;SDS011;5402;50.004;8.246;2022-10-18T12:26:22;2.20;;;0.80;;
10701;SDS011;5402;50.004;8.246;2022-10-18T12:28:55;0.70;;;0.70;;
10701;SDS011;5402;50.004;8.246;2022-10-18T12:31:27;1.00;;;0.80;;
10701;SDS011;5402;50.004;8.246;2022-10-18T12:33:59;0.85;;;0.80;;
10701;SDS011;5402;50.004;8.246;2022-10-18T12:36:46;0.80;;;0.80;;
10701;SDS011;5402;50.004;8.246;2022-10-18T12:39:21;0.80;;;0.80;;
10701;SDS011;5402;50.004;8.246;2022-10-18T12:41:51;1.00;;;1.00;;
10701;SDS011;5402;50.004;8.246;2022-10-18T12:44:20;0.90;;;0.90;;
10701;SDS011;5402;50.004;8.246;2022-10-18T12:46:51;1.17;;;1.03;;
10701;SDS011;5402;50.004;8.246;2022-10-18T12:49:22;1.23;;;1.13;;
10701;SDS011;5402;50.004;8.246;2022-10-18T12:51:54;2.20;;;1.00;;
10701;SDS011;5402;50.004;8.246;2022-10-18T12:54:24;1.27;;;0.97;;
10701;SDS011;5402;50.004;8.246;2022-10-18T12:56:53;2.03;;;0.90;;
10701;SDS011;5402;50.004;8.246;2022-10-18T12:59:38;1.40;;;1.30;;
10701;SDS011;5402;50.004;8.246;2022-10-18T13:02:20;1.30;;;1.20;;
10701;SDS011;5402;50.004;8.246;2022-10-18T13:04:52;1.87;;;1.47;;
10701;SDS011;5402;50.004;8.246;2022-10-18T13:07:30;2.37;;;1.47;;
10701;SDS011;5402;50.004;8.246;2022-10-18T13:13:17;2.23;;;0.90;;
10701;SDS011;5402;50.004;8.246;2022-10-18T13:15:53;1.47;;;1.20;;
10701;SDS011;5402;50.004;8.246;2022-10-18T13:18:28;1.30;;;1.20;;
10701;SDS011;5402;50.004;8.246;2022-10-18T13:21:06;0.90;;;0.90;;
10701;SDS011;5402;50.004;8.246;2022-10-18T13:23:41;1.20;;;1.10;;
10701;SDS011;5402;50.004;8.246;2022-10-18T13:26:21;1.83;;;1.27;;
10701;SDS011;5402;50.004;8.246;2022-10-18T13:28:56;1.33;;;1.20;;
10701;SDS011;5402;50.004;8.246;2022-10-18T13:31:34;1.20;;;1.10;;
10701;SDS011;5402;50.004;8.246;2022-10-18T13:34:15;1.57;;;1.10;;
10701;SDS011;5402;50.004;8.246;2022-10-18T13:36:54;1.27;;;1.17;;
10701;SDS011;5402;50.004;8.246;2022-10-18T13:39:26;1.17;;;1.07;;
10701;SDS011;5402;50.004;8.246;2022-10-18T13:44:44;1.97;;;1.00;;
10701;SDS011;5402;50.004;8.246;2022-10-18T13:47:12;1.90;;;1.20;;
10701;SDS011;5402;50.004;8.246;2022-10-18T13:49:46;3.97;;;1.20;;
10701;SDS011;5402;50.004;8.246;2022-10-18T13:52:49;2.50;;;1.00;;
10701;SDS011;5402;50.004;8.246;2022-10-18T13:55:40;3.30;;;1.93;;
10701;SDS011;5402;50.004;8.246;2022-10-18T13:58:23;1.00;;;1.00;;
10701;SDS011;5402;50.004;8.246;2022-10-18T14:01:02;2.20;;;1.20;;
10701;SDS011;5402;50.004;8.246;2022-10-18T14:03:49;1.17;;;1.00;;
10701;SDS011;5402;50.004;8.246;2022-10-18T14:06:35;4.03;;;1.47;;
10701;SDS011;5402;50.004;8.246;2022-10-18T14:09:06;1.63;;;1.20;;
10701;SDS011;5402;50.004;8.246;2022-10-18T14:11:41;1.90;;;1.30;;
10701;SDS011;5402;50.004;8.246;2022-10-18T14:14:13;1.40;;;1.30;;
10701;SDS011;5402;50.004;8.246;2022-10-18T14:16:46;1.83;;;1.50;;
10701;SDS011;5402;50.004;8.246;2022-10-18T14:19:20;1.70;;;1.50;;
10701;SDS011;5402;50.004;8.246;2022-10-18T14:21:56;1.33;;;1.23;;
10701;SDS011;5402;50.004;8.246;2022-10-18T14:24:29;1.40;;;1.30;;
10701;SDS011;5402;50.004;8.246;2022-10-18T14:27:10;2.10;;;1.58;;
10701;SDS011;5402;50.004;8.246;2022-10-18T14:29:41;2.00;;;1.50;;
10701;SDS011;5402;50.004;8.246;2022-10-18T14:32:08;2.03;;;1.80;;
10701;SDS011;5402;50.004;8.246;2022-10-18T14:34:42;3.97;;;1.53;;
10701;SDS011;5402;50.004;8.246;2022-10-18T14:37:12;2.27;;;1.43;;
10701;SDS011;5402;50.004;8.246;2022-10-18T14:39:48;4.00;;;2.20;;
10701;SDS011;5402;50.004;8.246;2022-10-18T14:42:19;1.67;;;1.50;;
10701;SDS011;5402;50.004;8.246;2022-10-18T14:44:48;2.50;;;1.83;;
10701;SDS011;5402;50.004;8.246;2022-10-18T14:47:16;3.10;;;1.57;;
10701;SDS011;5402;50.004;8.246;2022-10-18T14:49:46;3.47;;;1.80;;
10701;SDS011;5402;50.004;8.246;2022-10-18T14:52:14;1.90;;;1.70;;
10701;SDS011;5402;50.004;8.246;2022-10-18T14:54:43;2.30;;;1.73;;
10701;SDS011;5402;50.004;8.246;2022-10-18T14:57:14;1.73;;;1.40;;
10701;SDS011;5402;50.004;8.246;2022-10-18T14:59:46;2.20;;;1.70;;
10701;SDS011;5402;50.004;8.246;2022-10-18T15:02:16;1.80;;;1.70;;
10701;SDS011;5402;50.004;8.246;2022-10-18T15:04:52;2.90;;;1.67;;
10701;SDS011;5402;50.004;8.246;2022-10-18T15:07:21;1.70;;;1.60;;
10701;SDS011;5402;50.004;8.246;2022-10-18T15:09:48;2.93;;;1.70;;
10701;SDS011;5402;50.004;8.246;2022-10-18T15:12:15;5.63;;;2.00;;
10701;SDS011;5402;50.004;8.246;2022-10-18T15:14:43;1.90;;;1.80;;
10701;SDS011;5402;50.004;8.246;2022-10-18T15:17:13;2.60;;;1.90;;
10701;SDS011;5402;50.004;8.246;2022-10-18T15:19:52;2.10;;;1.80;;
10701;SDS011;5402;50.004;8.246;2022-10-18T15:22:21;2.10;;;1.63;;
10701;SDS011;5402;50.004;8.246;2022-10-18T15:25:03;3.10;;;1.87;;
10701;SDS011;5402;50.004;8.246;2022-10-18T15:27:41;2.47;;;2.27;;
10701;SDS011;5402;50.004;8.246;2022-10-18T15:30:16;4.53;;;2.30;;
10701;SDS011;5402;50.004;8.246;2022-10-18T15:32:49;2.40;;;2.20;;
10701;SDS011;5402;50.004;8.246;2022-10-18T15:35:18;1.97;;;1.87;;
10701;SDS011;5402;50.004;8.246;2022-10-18T15:37:49;2.70;;;2.10;;